Braunau, Austria
Current Conditions -  °F | °C
As of 11:50 AM on Sunday 23 Nov 2014 (Local Time) from LOWS Reporting Station
Moderate Fog Moderate Fog  
Wind Chill: 36°   Ceiling: 200
Heat Index: 39°   Visibility: 0.43mi
Dew Point: 39°   Wind: 5mph
Humidity: 100%   Direction: 340°NNW
Pressure: 30.24"   Gusts: NA
Location:  48.26°N, 13.04°E
Report Text: LOWS 231050Z 34004KT 300V020 0700 R15/0800N R33/1100U FG OVC002 04/04 Q1024 TEMPO 1200 BCFG OVC003
Loading
Personal Weather Stations






























Interactive Weather Map New forecast layout! Learn more

10-Day Weather Forecast

Advertisements
Track Severe Weather on mobile